Time;durP1;ratioP1;P1;durP2;ratioP2;P2;SDS_P1;SDS_P2;PMS_P1;PMS_P2;Temp;Humidity;BMP_temperature;BMP_pressure;BME280_temperature;BME280_humidity;BME280_pressure;Samples;Min_cycle;Max_cycle;Signal;HPM_P1;HPM_P2
2022/07/08 00:01:14;;;;;;;;;1.00;1.00;;;;;;;;5102457;27;46776;-46
2022/07/08 00:03:40;;;;;;;;;3.25;3.25;;;;;;;;5101363;27;45447;-48
2022/07/08 00:06:05;;;;;;;;;2.75;2.75;;;;;;;;5102750;27;45292;-46
2022/07/08 00:08:31;;;;;;;;;4.25;4.25;;;;;;;;5102784;27;45267;-46
2022/07/08 00:10:56;;;;;;;;;4.00;3.00;;;;;;;;5102391;27;46020;-48
2022/07/08 00:13:21;;;;;;;;;2.75;2.75;;;;;;;;5102444;27;45193;-48
2022/07/08 00:15:47;;;;;;;;;3.75;3.00;;;;;;;;5102491;27;45195;-44
2022/07/08 00:18:12;;;;;;;;;2.75;2.75;;;;;;;;5102760;27;45467;-47
2022/07/08 00:20:37;;;;;;;;;3.75;3.75;;;;;;;;5102356;27;45849;-49
2022/07/08 00:23:02;;;;;;;;;5.00;3.00;;;;;;;;5101397;27;45266;-47
2022/07/08 00:25:28;;;;;;;;;2.00;2.00;;;;;;;;5101350;27;45205;-46
2022/07/08 00:27:53;;;;;;;;;3.00;3.00;;;;;;;;5102995;27;45479;-48
2022/07/08 00:30:18;;;;;;;;;3.25;3.25;;;;;;;;5102389;27;45395;-46
2022/07/08 00:32:43;;;;;;;;;3.00;3.00;;;;;;;;5102405;27;45216;-46
2022/07/08 00:35:09;;;;;;;;;4.25;3.00;;;;;;;;5102491;27;45293;-47
2022/07/08 00:37:34;;;;;;;;;1.00;1.00;;;;;;;;5101445;27;45320;-48
2022/07/08 00:39:59;;;;;;;;;3.75;3.75;;;;;;;;5100729;27;46809;-47
2022/07/08 00:42:25;;;;;;;;;3.75;3.75;;;;;;;;5102239;27;45575;-45
2022/07/08 00:44:50;;;;;;;;;3.00;3.00;;;;;;;;5102442;27;45619;-45
2022/07/08 00:47:15;;;;;;;;;2.00;2.00;;;;;;;;5102668;27;45418;-47
2022/07/08 00:49:41;;;;;;;;;5.50;4.00;;;;;;;;5102086;27;46816;-44
2022/07/08 00:52:06;;;;;;;;;5.00;3.25;;;;;;;;5100798;27;45370;-47
2022/07/08 00:54:32;;;;;;;;;3.75;3.25;;;;;;;;5102234;27;45419;-48
2022/07/08 00:56:57;;;;;;;;;3.25;2.50;;;;;;;;5066533;27;45465;-47
2022/07/08 00:59:23;;;;;;;;;4.00;3.00;;;;;;;;5079029;27;45421;-46
2022/07/08 01:01:48;;;;;;;;;2.25;2.00;;;;;;;;5080243;28;45360;-48
2022/07/08 01:04:13;;;;;;;;;3.00;3.00;;;;;;;;5078635;28;45356;-46
2022/07/08 01:06:39;;;;;;;;;3.25;3.00;;;;;;;;5081392;28;45383;-46
2022/07/08 01:09:04;;;;;;;;;2.00;2.00;;;;;;;;5076079;27;45928;-46
2022/07/08 01:11:29;;;;;;;;;3.25;3.00;;;;;;;;5061049;28;45319;-48
2022/07/08 01:13:55;;;;;;;;;3.00;3.00;;;;;;;;5061079;28;45417;-48
2022/07/08 01:16:20;;;;;;;;;3.00;2.25;;;;;;;;5060123;28;45234;-46
2022/07/08 01:18:45;;;;;;;;;4.50;4.00;;;;;;;;5060568;28;46719;-45
2022/07/08 01:21:11;;;;;;;;;5.00;3.75;;;;;;;;5060506;28;45330;-47
2022/07/08 01:23:36;;;;;;;;;3.75;2.75;;;;;;;;5060967;28;45166;-46
2022/07/08 01:26:04;;;;;;;;;6.00;3.50;;;;;;;;5061070;28;45318;-46
2022/07/08 01:28:29;;;;;;;;;1.80;1.80;;;;;;;;5059455;28;45526;-47
2022/07/08 01:30:54;;;;;;;;;4.50;3.25;;;;;;;;5060726;28;45224;-46
2022/07/08 01:33:20;;;;;;;;;2.75;2.00;;;;;;;;5060854;28;45336;-49
2022/07/08 01:35:45;;;;;;;;;5.00;3.75;;;;;;;;5060730;28;45360;-46
2022/07/08 01:38:10;;;;;;;;;2.75;2.75;;;;;;;;5060489;28;46207;-45
2022/07/08 01:40:36;;;;;;;;;5.50;4.00;;;;;;;;5060462;28;45393;-46
2022/07/08 01:43:01;;;;;;;;;2.25;2.25;;;;;;;;5060664;28;45207;-48
2022/07/08 01:45:26;;;;;;;;;4.25;2.25;;;;;;;;5060701;28;45298;-46
2022/07/08 01:47:52;;;;;;;;;2.00;2.00;;;;;;;;5060402;28;46386;-46
2022/07/08 01:50:17;;;;;;;;;3.00;2.00;;;;;;;;5060470;28;45393;-46
2022/07/08 01:52:42;;;;;;;;;2.50;2.50;;;;;;;;5060508;28;45246;-49
2022/07/08 01:55:08;;;;;;;;;1.25;1.00;;;;;;;;5060325;28;45643;-46
2022/07/08 01:57:34;;;;;;;;;3.00;1.75;;;;;;;;5060339;28;46712;-45
2022/07/08 01:59:59;;;;;;;;;6.00;1.80;;;;;;;;5060095;28;45423;-45
2022/07/08 02:02:25;;;;;;;;;3.25;2.25;;;;;;;;5053455;27;45299;-48
2022/07/08 02:04:50;;;;;;;;;2.25;2.25;;;;;;;;5077758;28;45368;-46
2022/07/08 02:07:15;;;;;;;;;3.00;3.00;;;;;;;;5072104;28;47368;-49
2022/07/08 02:09:41;;;;;;;;;4.00;2.75;;;;;;;;5078138;28;45265;-48
2022/07/08 02:12:18;;;;;;;;;2.25;2.25;;;;;;;;5061416;28;45209;-45
2022/07/08 02:15:04;;;;;;;;;2.40;2.00;;;;;;;;5079581;28;45272;-49
2022/07/08 02:17:34;;;;;;;;;2.40;1.00;;;;;;;;5076804;27;45638;-47
2022/07/08 02:19:59;;;;;;;;;2.40;2.00;;;;;;;;5077782;28;45403;-47
2022/07/08 02:22:24;;;;;;;;;2.75;2.50;;;;;;;;5078741;28;45715;-49
2022/07/08 02:24:50;;;;;;;;;3.75;3.25;;;;;;;;5080179;28;45285;-46
2022/07/08 02:27:15;;;;;;;;;2.50;2.00;;;;;;;;5079890;28;47081;-45
2022/07/08 02:29:40;;;;;;;;;3.00;3.00;;;;;;;;5078631;28;45409;-47
2022/07/08 02:32:06;;;;;;;;;2.00;1.75;;;;;;;;5079744;28;45253;-47
2022/07/08 02:34:31;;;;;;;;;4.00;4.00;;;;;;;;5080012;28;45234;-44
2022/07/08 02:36:57;;;;;;;;;3.00;3.00;;;;;;;;5079526;28;46639;-49
2022/07/08 02:39:22;;;;;;;;;4.00;3.00;;;;;;;;5079480;28;45244;-49
2022/07/08 02:41:47;;;;;;;;;2.25;2.25;;;;;;;;5078489;28;45311;-45
2022/07/08 02:44:12;;;;;;;;;2.50;2.50;;;;;;;;5079814;28;45557;-46
2022/07/08 02:46:38;;;;;;;;;4.50;2.75;;;;;;;;5079480;28;46678;-48
2022/07/08 02:49:03;;;;;;;;;3.00;3.00;;;;;;;;5079387;27;45360;-49
2022/07/08 02:51:28;;;;;;;;;3.50;2.50;;;;;;;;5079601;28;45273;-47
2022/07/08 02:53:54;;;;;;;;;1.00;1.00;;;;;;;;5079633;28;45308;-45
2022/07/08 02:56:19;;;;;;;;;2.75;2.75;;;;;;;;5079371;28;46546;-50
2022/07/08 02:58:44;;;;;;;;;3.00;2.00;;;;;;;;5079316;28;45268;-47
2022/07/08 03:01:09;;;;;;;;;2.00;2.00;;;;;;;;5079412;28;45262;-46
2022/07/08 03:03:35;;;;;;;;;1.00;1.00;;;;;;;;5079696;28;45285;-47
2022/07/08 03:06:00;;;;;;;;;3.75;3.75;;;;;;;;5075499;27;46406;-46
2022/07/08 03:08:25;;;;;;;;;2.00;2.00;;;;;;;;5072729;28;45445;-45
2022/07/08 03:10:50;;;;;;;;;3.00;2.75;;;;;;;;5078195;28;45513;-48
2022/07/08 03:13:16;;;;;;;;;3.00;3.00;;;;;;;;5078802;28;45499;-47
2022/07/08 03:15:41;;;;;;;;;3.75;3.75;;;;;;;;5077282;28;45398;-45
2022/07/08 03:18:06;;;;;;;;;5.00;2.75;;;;;;;;5077735;28;45340;-46
2022/07/08 03:20:32;;;;;;;;;2.00;0.75;;;;;;;;5078181;27;45380;-46
2022/07/08 03:22:57;;;;;;;;;5.50;2.00;;;;;;;;5078381;28;45400;-48
2022/07/08 03:25:22;;;;;;;;;2.75;2.00;;;;;;;;5079041;28;46752;-46
2022/07/08 03:27:48;;;;;;;;;2.50;2.50;;;;;;;;5079283;28;45383;-47
2022/07/08 03:30:13;;;;;;;;;4.00;3.00;;;;;;;;5078992;28;45331;-49
2022/07/08 03:32:39;;;;;;;;;3.00;2.25;;;;;;;;5079483;27;45422;-49
2022/07/08 03:35:04;;;;;;;;;5.00;4.75;;;;;;;;5078947;28;45317;-46
2022/07/08 03:37:29;;;;;;;;;4.00;2.00;;;;;;;;5079146;28;45416;-48
2022/07/08 03:39:55;;;;;;;;;3.00;3.00;;;;;;;;5079104;28;45379;-45
2022/07/08 03:42:20;;;;;;;;;3.00;3.00;;;;;;;;5078012;28;45625;-44
2022/07/08 03:44:45;;;;;;;;;3.25;2.25;;;;;;;;5078909;28;45488;-46
2022/07/08 03:47:11;;;;;;;;;2.75;2.75;;;;;;;;5079176;28;45372;-48
2022/07/08 03:49:36;;;;;;;;;4.25;4.25;;;;;;;;5079158;28;45363;-44
2022/07/08 03:52:01;;;;;;;;;4.00;4.00;;;;;;;;5079130;28;45140;-47
2022/07/08 03:54:27;;;;;;;;;5.50;3.25;;;;;;;;5077438;28;45729;-46
2022/07/08 03:56:52;;;;;;;;;4.25;3.00;;;;;;;;5078743;28;45226;-47
2022/07/08 03:59:18;;;;;;;;;3.00;2.75;;;;;;;;5078847;28;45384;-46
2022/07/08 04:01:43;;;;;;;;;3.75;2.25;;;;;;;;5079039;28;45528;-48
2022/07/08 04:04:08;;;;;;;;;2.00;2.00;;;;;;;;5078654;28;46602;-50
2022/07/08 04:06:34;;;;;;;;;2.00;2.00;;;;;;;;5078799;28;45331;-49
2022/07/08 04:08:59;;;;;;;;;2.25;2.00;;;;;;;;5078849;28;45189;-46
2022/07/08 04:11:24;;;;;;;;;6.25;2.75;;;;;;;;5079003;28;45351;-46
2022/07/08 04:13:49;;;;;;;;;3.25;2.50;;;;;;;;5078589;28;45442;-47
2022/07/08 04:16:15;;;;;;;;;4.00;2.25;;;;;;;;5078658;28;45324;-44
2022/07/08 04:18:40;;;;;;;;;3.00;3.00;;;;;;;;5077036;28;45354;-47
2022/07/08 04:21:06;;;;;;;;;4.00;2.50;;;;;;;;5078416;28;45300;-46
2022/07/08 04:23:31;;;;;;;;;4.00;3.25;;;;;;;;5078195;28;45519;-45
2022/07/08 04:25:56;;;;;;;;;5.50;4.00;;;;;;;;5078000;28;45354;-45
2022/07/08 04:28:21;;;;;;;;;7.75;5.00;;;;;;;;5078335;28;45388;-45
2022/07/08 04:30:47;;;;;;;;;6.25;2.00;;;;;;;;5077029;28;45296;-46
2022/07/08 04:33:12;;;;;;;;;3.50;3.00;;;;;;;;5078039;28;45734;-46
2022/07/08 04:35:37;;;;;;;;;4.50;2.50;;;;;;;;5078036;28;45313;-46
2022/07/08 04:38:02;;;;;;;;;3.50;2.50;;;;;;;;5078203;28;45313;-50
2022/07/08 04:40:28;;;;;;;;;3.25;3.25;;;;;;;;5078136;28;45745;-48
2022/07/08 04:42:53;;;;;;;;;3.25;3.00;;;;;;;;5078213;28;46515;-45
2022/07/08 04:45:19;;;;;;;;;7.00;4.00;;;;;;;;5080099;28;45348;-47
2022/07/08 04:47:44;;;;;;;;;5.00;5.00;;;;;;;;5081673;28;45339;-48
2022/07/08 04:50:09;;;;;;;;;2.50;2.25;;;;;;;;5081586;27;45285;-46
2022/07/08 04:52:34;;;;;;;;;3.25;3.00;;;;;;;;5081282;28;46092;-47
2022/07/08 04:55:00;;;;;;;;;3.00;2.50;;;;;;;;5081269;27;45308;-47
2022/07/08 04:57:25;;;;;;;;;3.00;3.00;;;;;;;;5081536;28;45245;-46
2022/07/08 04:59:50;;;;;;;;;4.25;3.00;;;;;;;;5081391;28;45618;-47
2022/07/08 05:02:15;;;;;;;;;3.00;3.00;;;;;;;;5079827;28;45732;-46
2022/07/08 05:04:41;;;;;;;;;4.00;4.00;;;;;;;;5081092;28;45275;-46
2022/07/08 05:07:06;;;;;;;;;2.75;2.75;;;;;;;;5081229;28;45204;-46
2022/07/08 05:09:31;;;;;;;;;6.00;5.00;;;;;;;;5081232;28;45182;-46
2022/07/08 05:11:57;;;;;;;;;3.75;3.25;;;;;;;;5080926;28;45419;-47
2022/07/08 05:14:22;;;;;;;;;4.00;3.00;;;;;;;;5081053;28;45229;-45
2022/07/08 05:16:47;;;;;;;;;5.75;3.00;;;;;;;;5080791;28;45221;-47
2022/07/08 05:19:12;;;;;;;;;3.00;3.00;;;;;;;;5080988;27;45342;-46
2022/07/08 05:21:38;;;;;;;;;6.00;6.00;;;;;;;;5079593;28;47938;-48
2022/07/08 05:24:04;;;;;;;;;5.25;3.50;;;;;;;;5081047;28;45185;-45
2022/07/08 05:26:29;;;;;;;;;4.40;3.00;;;;;;;;5081218;28;45219;-48
2022/07/08 05:28:55;;;;;;;;;4.50;3.00;;;;;;;;5081415;28;45192;-46
2022/07/08 05:31:20;;;;;;;;;3.50;3.50;;;;;;;;5080775;28;46866;-46
2022/07/08 05:33:45;;;;;;;;;4.00;4.00;;;;;;;;5081028;27;45240;-46
2022/07/08 05:36:10;;;;;;;;;3.00;3.00;;;;;;;;5081173;28;45217;-46
2022/07/08 05:38:36;;;;;;;;;6.75;3.75;;;;;;;;5081147;28;45475;-45
2022/07/08 05:41:01;;;;;;;;;4.75;3.50;;;;;;;;5080553;28;46516;-46
2022/07/08 05:43:27;;;;;;;;;5.00;4.00;;;;;;;;5080729;28;45436;-45
2022/07/08 05:45:52;;;;;;;;;5.75;5.75;;;;;;;;5081096;28;45345;-48
2022/07/08 05:48:18;;;;;;;;;7.50;5.00;;;;;;;;5081084;28;45575;-48
2022/07/08 05:50:43;;;;;;;;;12.00;6.75;;;;;;;;5080405;28;45622;-47
2022/07/08 05:53:08;;;;;;;;;5.25;5.25;;;;;;;;5079242;28;45348;-46
2022/07/08 05:55:34;;;;;;;;;4.50;4.50;;;;;;;;5080794;28;45340;-47
2022/07/08 05:57:59;;;;;;;;;4.75;4.75;;;;;;;;5080906;28;45344;-51
2022/07/08 06:00:25;;;;;;;;;7.25;4.75;;;;;;;;5080052;28;45364;-48
2022/07/08 06:02:50;;;;;;;;;7.00;4.25;;;;;;;;5080398;28;45480;-48
2022/07/08 06:05:15;;;;;;;;;4.25;4.00;;;;;;;;5080648;28;45276;-43
2022/07/08 06:07:41;;;;;;;;;4.00;4.00;;;;;;;;5080409;28;45387;-49
2022/07/08 06:10:07;;;;;;;;;7.25;3.25;;;;;;;;5080359;28;45460;-44
2022/07/08 06:12:32;;;;;;;;;4.25;4.25;;;;;;;;5080149;27;45269;-46
2022/07/08 06:14:57;;;;;;;;;4.50;4.50;;;;;;;;5080492;28;45343;-46
2022/07/08 06:17:22;;;;;;;;;4.25;2.25;;;;;;;;5080103;28;45397;-45
2022/07/08 06:19:48;;;;;;;;;7.25;6.00;;;;;;;;5079541;27;46463;-42
2022/07/08 06:22:13;;;;;;;;;4.00;4.00;;;;;;;;5079794;27;45204;-42
2022/07/08 06:24:39;;;;;;;;;4.00;4.00;;;;;;;;5079997;28;45217;-47
2022/07/08 06:27:05;;;;;;;;;3.80;3.40;;;;;;;;5053659;27;45208;-46
2022/07/08 06:29:30;;;;;;;;;5.00;4.25;;;;;;;;5079693;28;46157;-43
2022/07/08 06:31:56;;;;;;;;;7.00;4.00;;;;;;;;5079798;28;45494;-44
2022/07/08 06:34:21;;;;;;;;;4.00;4.00;;;;;;;;5078714;28;45304;-46
2022/07/08 06:36:46;;;;;;;;;6.00;5.00;;;;;;;;5080064;28;45357;-44
2022/07/08 06:39:11;;;;;;;;;7.00;4.00;;;;;;;;5079424;28;45817;-42
2022/07/08 06:41:37;;;;;;;;;6.25;5.00;;;;;;;;5079588;28;45335;-44
2022/07/08 06:44:02;;;;;;;;;7.50;7.50;;;;;;;;5079676;28;45281;-45
2022/07/08 06:46:28;;;;;;;;;3.00;2.00;;;;;;;;5079679;28;45361;-45
2022/07/08 06:48:54;;;;;;;;;6.75;5.75;;;;;;;;5079300;28;45628;-43
2022/07/08 06:51:19;;;;;;;;;7.75;5.25;;;;;;;;5079464;28;45313;-44
2022/07/08 06:56:28;;;;;;;;;7.80;5.80;;;;;;;;5079424;28;45379;-44
2022/07/08 06:58:53;;;;;;;;;8.50;6.75;;;;;;;;5079151;28;45344;-44
2022/07/08 07:01:19;;;;;;;;;4.25;4.25;;;;;;;;5079057;28;45292;-47
2022/07/08 07:03:44;;;;;;;;;9.25;6.75;;;;;;;;5079271;28;45415;-47
2022/07/08 07:06:09;;;;;;;;;7.00;5.25;;;;;;;;5078667;28;45288;-46
2022/07/08 07:08:35;;;;;;;;;5.00;5.00;;;;;;;;5077896;28;45987;-49
2022/07/08 07:11:00;;;;;;;;;8.75;6.50;;;;;;;;5077838;28;45365;-49
2022/07/08 07:13:25;;;;;;;;;8.00;6.50;;;;;;;;5079252;27;45300;-49
2022/07/08 07:15:50;;;;;;;;;9.25;6.50;;;;;;;;5079300;28;45359;-47
2022/07/08 07:18:16;;;;;;;;;7.75;6.75;;;;;;;;5078603;28;46453;-47
2022/07/08 07:20:41;;;;;;;;;7.00;6.50;;;;;;;;5064769;27;45546;-47
2022/07/08 07:23:06;;;;;;;;;9.25;6.50;;;;;;;;5099405;27;45647;-45
2022/07/08 07:25:31;;;;;;;;;7.75;7.75;;;;;;;;5074592;27;45535;-47
2022/07/08 07:27:57;;;;;;;;;8.75;7.25;;;;;;;;5077488;27;46633;-51
2022/07/08 07:30:24;;;;;;;;;9.00;8.00;;;;;;;;5078308;28;45327;-48
2022/07/08 07:32:50;;;;;;;;;8.60;8.60;;;;;;;;5072390;27;45369;-49
2022/07/08 07:35:15;;;;;;;;;10.50;10.00;;;;;;;;5099536;27;45328;-45
2022/07/08 07:37:40;;;;;;;;;9.00;7.50;;;;;;;;5098900;27;45605;-45
2022/07/08 07:40:06;;;;;;;;;9.50;8.25;;;;;;;;5099173;27;45308;-50
2022/07/08 07:42:31;;;;;;;;;9.50;7.75;;;;;;;;5098701;27;45425;-49
2022/07/08 07:44:56;;;;;;;;;10.00;9.00;;;;;;;;5099376;27;45474;-44
2022/07/08 07:47:22;;;;;;;;;11.75;11.50;;;;;;;;5099018;27;46489;-48
2022/07/08 07:49:47;;;;;;;;;10.00;7.50;;;;;;;;5098425;27;45444;-48
2022/07/08 07:52:12;;;;;;;;;12.75;11.75;;;;;;;;5099287;27;45397;-47
2022/07/08 07:54:37;;;;;;;;;10.75;8.00;;;;;;;;5097719;27;45369;-49
2022/07/08 07:57:03;;;;;;;;;10.75;9.75;;;;;;;;5098927;27;46179;-47
2022/07/08 07:59:28;;;;;;;;;12.00;12.00;;;;;;;;5099035;27;45399;-48
2022/07/08 08:01:53;;;;;;;;;13.75;10.00;;;;;;;;5099218;27;45261;-50
2022/07/08 08:04:19;;;;;;;;;8.75;7.50;;;;;;;;5087247;27;45370;-46
2022/07/08 08:06:44;;;;;;;;;8.25;6.75;;;;;;;;5077247;27;46900;-50
2022/07/08 08:09:09;;;;;;;;;10.00;9.00;;;;;;;;5077200;28;45370;-47
2022/07/08 08:11:34;;;;;;;;;9.00;7.50;;;;;;;;5076929;28;45625;-51
2022/07/08 08:14:00;;;;;;;;;7.75;6.75;;;;;;;;5078764;28;45506;-47
2022/07/08 08:16:25;;;;;;;;;8.00;8.00;;;;;;;;5078612;27;46484;-48
2022/07/08 08:18:50;;;;;;;;;9.75;9.75;;;;;;;;5081078;27;45304;-46
2022/07/08 08:21:15;;;;;;;;;10.00;8.25;;;;;;;;5081963;27;45381;-47
2022/07/08 08:23:41;;;;;;;;;11.75;10.00;;;;;;;;5080903;27;45394;-48
2022/07/08 08:26:06;;;;;;;;;9.75;8.00;;;;;;;;5081942;27;46448;-48
2022/07/08 08:28:31;;;;;;;;;12.75;7.00;;;;;;;;5082037;28;45317;-47
2022/07/08 08:30:57;;;;;;;;;9.50;7.75;;;;;;;;5082013;28;45355;-46
2022/07/08 08:33:22;;;;;;;;;9.50;8.50;;;;;;;;5080782;28;45669;-45
2022/07/08 08:35:47;;;;;;;;;11.00;7.75;;;;;;;;5081769;27;46607;-48
2022/07/08 08:38:13;;;;;;;;;8.25;6.50;;;;;;;;5081786;27;45435;-49
2022/07/08 08:40:38;;;;;;;;;8.50;8.50;;;;;;;;5080518;28;45325;-44
2022/07/08 08:43:03;;;;;;;;;7.25;7.25;;;;;;;;5080476;27;45615;-44
2022/07/08 08:45:29;;;;;;;;;9.50;8.00;;;;;;;;5081627;28;45713;-48
2022/07/08 08:47:54;;;;;;;;;11.50;7.00;;;;;;;;5080568;28;45388;-45
2022/07/08 08:53:03;;;;;;;;;8.20;8.20;;;;;;;;5080866;28;45411;-48
2022/07/08 08:55:33;;;;;;;;;9.00;8.00;;;;;;;;5080186;28;45843;-47
2022/07/08 08:58:04;;;;;;;;;9.40;5.80;;;;;;;;5081558;27;45280;-49
2022/07/08 09:00:30;;;;;;;;;6.60;6.60;;;;;;;;5084013;27;48683;-51
2022/07/08 09:02:56;;;;;;;;;8.00;7.20;;;;;;;;5101012;27;45519;-51
2022/07/08 09:05:21;;;;;;;;;12.75;9.75;;;;;;;;5080691;27;46102;-47
2022/07/08 09:07:46;;;;;;;;;13.50;12.00;;;;;;;;5099527;27;45265;-47
2022/07/08 09:10:13;;;;;;;;;8.75;7.50;;;;;;;;5101888;27;45316;-49
2022/07/08 09:12:39;;;;;;;;;7.80;6.80;;;;;;;;5081964;27;45414;-52
2022/07/08 09:15:04;;;;;;;;;10.25;7.50;;;;;;;;5098295;27;45464;-48
2022/07/08 09:17:29;;;;;;;;;8.00;7.50;;;;;;;;5098884;27;45518;-49
2022/07/08 09:19:55;;;;;;;;;8.00;8.00;;;;;;;;5086160;27;45390;-51
2022/07/08 09:22:21;;;;;;;;;10.50;8.25;;;;;;;;5080316;28;45359;-49
2022/07/08 09:24:46;;;;;;;;;10.25;7.50;;;;;;;;5080485;28;46516;-47
2022/07/08 09:27:11;;;;;;;;;7.50;6.50;;;;;;;;5080103;28;45399;-47
2022/07/08 09:29:38;;;;;;;;;11.50;11.00;;;;;;;;5079820;28;45357;-51
2022/07/08 09:32:13;;;;;;;;;6.80;6.80;;;;;;;;5091235;27;45328;-54
2022/07/08 09:34:39;;;;;;;;;11.00;9.20;;;;;;;;5100862;27;46316;-49
2022/07/08 09:37:09;;;;;;;;;7.00;7.00;;;;;;;;5099630;27;45350;-45
2022/07/08 09:39:34;;;;;;;;;6.40;6.40;;;;;;;;5089323;27;45546;-46
2022/07/08 09:41:59;;;;;;;;;10.00;8.25;;;;;;;;5080610;28;45386;-50
2022/07/08 09:44:25;;;;;;;;;6.00;5.25;;;;;;;;5095888;27;46742;-47
2022/07/08 09:46:50;;;;;;;;;10.00;7.00;;;;;;;;5099921;27;45407;-48
2022/07/08 09:49:28;;;;;;;;;8.25;8.00;;;;;;;;5099581;27;45375;-46
2022/07/08 09:51:53;;;;;;;;;7.00;5.80;;;;;;;;5100598;27;45197;-48
2022/07/08 09:54:19;;;;;;;;;8.00;5.25;;;;;;;;5099781;27;45338;-47
2022/07/08 09:56:58;;;;;;;;;9.75;7.50;;;;;;;;5098983;27;45390;-48
2022/07/08 09:59:23;;;;;;;;;5.80;5.80;;;;;;;;5099301;27;45472;-48
2022/07/08 10:01:50;;;;;;;;;8.75;8.50;;;;;;;;5100725;27;45321;-48
2022/07/08 10:04:16;;;;;;;;;9.80;8.40;;;;;;;;5099370;27;45574;-48
2022/07/08 10:06:42;;;;;;;;;11.40;10.60;;;;;;;;5100511;27;45301;-47
2022/07/08 10:09:07;;;;;;;;;21.50;16.50;;;;;;;;5099998;27;45624;-50
2022/07/08 10:11:32;;;;;;;;;19.00;15.75;;;;;;;;5099749;27;45321;-51
2022/07/08 10:13:57;;;;;;;;;10.50;8.25;;;;;;;;5098885;27;45692;-48
2022/07/08 10:16:22;;;;;;;;;6.00;6.00;;;;;;;;5098814;27;45286;-47
2022/07/08 10:18:49;;;;;;;;;5.50;4.50;;;;;;;;5099109;27;45389;-51
2022/07/08 10:21:17;;;;;;;;;3.80;3.80;;;;;;;;5060076;27;45605;-47
2022/07/08 10:23:46;;;;;;;;;7.80;5.80;;;;;;;;5078839;27;46987;-45
2022/07/08 10:26:11;;;;;;;;;6.00;6.00;;;;;;;;5078789;28;45326;-55
2022/07/08 10:28:37;;;;;;;;;7.50;6.75;;;;;;;;5080148;28;45264;-48
2022/07/08 10:31:02;;;;;;;;;5.75;5.75;;;;;;;;5080241;28;45454;-50
2022/07/08 10:33:28;;;;;;;;;6.00;6.00;;;;;;;;5078591;28;45755;-47
2022/07/08 10:36:01;;;;;;;;;9.20;5.00;;;;;;;;5079902;28;45300;-48
2022/07/08 10:38:34;;;;;;;;;5.80;5.80;;;;;;;;5078965;28;45466;-47
2022/07/08 10:41:04;;;;;;;;;11.80;7.20;;;;;;;;5078892;28;45308;-49
2022/07/08 10:43:29;;;;;;;;;7.40;6.00;;;;;;;;5079730;28;45367;-45
2022/07/08 10:46:01;;;;;;;;;5.50;5.50;;;;;;;;5079818;28;45428;-49
2022/07/08 10:48:28;;;;;;;;;4.40;3.40;;;;;;;;5079977;28;45221;-48
2022/07/08 10:50:53;;;;;;;;;5.40;5.00;;;;;;;;5079973;28;45143;-48
2022/07/08 10:53:18;;;;;;;;;5.50;5.25;;;;;;;;5079659;28;46266;-48
2022/07/08 10:55:43;;;;;;;;;3.25;3.25;;;;;;;;5079500;28;45297;-49
2022/07/08 10:58:09;;;;;;;;;6.50;4.25;;;;;;;;5079839;28;45156;-47
2022/07/08 11:00:36;;;;;;;;;5.25;5.25;;;;;;;;5078529;28;45457;-48
2022/07/08 11:03:02;;;;;;;;;10.00;5.20;;;;;;;;5078135;28;45511;-49
2022/07/08 11:05:40;;;;;;;;;4.20;3.60;;;;;;;;5079488;27;45269;-49
2022/07/08 11:08:20;;;;;;;;;6.80;6.00;;;;;;;;5079656;28;45260;-49
2022/07/08 11:10:46;;;;;;;;;6.00;4.20;;;;;;;;5079663;28;45676;-49
2022/07/08 11:13:11;;;;;;;;;7.25;7.00;;;;;;;;5077918;28;45865;-48
2022/07/08 11:15:36;;;;;;;;;5.00;4.50;;;;;;;;5079388;28;45333;-49
2022/07/08 11:18:02;;;;;;;;;11.00;4.50;;;;;;;;5079156;28;45331;-48
2022/07/08 11:20:29;;;;;;;;;8.75;8.75;;;;;;;;5051895;27;45362;-48
2022/07/08 11:22:54;;;;;;;;;4.00;4.00;;;;;;;;5076979;28;45551;-48
2022/07/08 11:25:19;;;;;;;;;3.00;3.00;;;;;;;;5071014;27;45618;-47
2022/07/08 11:27:45;;;;;;;;;10.00;10.00;;;;;;;;5096068;27;45830;-53
2022/07/08 11:30:11;;;;;;;;;4.50;4.50;;;;;;;;5099349;27;45246;-47
2022/07/08 11:32:36;;;;;;;;;6.80;5.80;;;;;;;;5096177;27;47073;-46
2022/07/08 11:35:02;;;;;;;;;3.00;3.00;;;;;;;;5078580;28;45419;-48
2022/07/08 11:37:27;;;;;;;;;5.50;3.00;;;;;;;;5078450;28;45469;-51
2022/07/08 11:39:52;;;;;;;;;5.75;3.25;;;;;;;;5078812;28;45348;-47
2022/07/08 11:42:18;;;;;;;;;8.25;7.75;;;;;;;;5078035;28;45641;-48
2022/07/08 11:44:43;;;;;;;;;4.25;4.00;;;;;;;;5078626;28;45278;-47
2022/07/08 11:47:10;;;;;;;;;4.00;4.00;;;;;;;;5077571;28;45332;-46
2022/07/08 11:49:40;;;;;;;;;4.00;4.00;;;;;;;;5078413;28;45418;-48
2022/07/08 11:52:05;;;;;;;;;5.00;4.00;;;;;;;;5080255;28;46986;-48
2022/07/08 11:54:30;;;;;;;;;6.75;3.50;;;;;;;;5079226;28;45599;-46
2022/07/08 11:56:59;;;;;;;;;4.50;4.50;;;;;;;;5080967;28;45680;-48
2022/07/08 11:59:26;;;;;;;;;4.40;3.20;;;;;;;;5082354;28;45254;-46
2022/07/08 12:01:51;;;;;;;;;4.80;4.80;;;;;;;;5080706;27;46082;-52
2022/07/08 12:04:16;;;;;;;;;5.00;5.00;;;;;;;;5082072;28;45377;-59
2022/07/08 12:07:00;;;;;;;;;5.50;4.50;;;;;;;;5077114;28;45241;-57
2022/07/08 12:09:26;;;;;;;;;6.00;4.60;;;;;;;;5077896;27;45498;-50
2022/07/08 12:11:52;;;;;;;;;5.50;4.00;;;;;;;;5081620;27;45388;-58
2022/07/08 12:14:17;;;;;;;;;3.00;3.00;;;;;;;;5080586;28;45329;-58
2022/07/08 12:16:46;;;;;;;;;6.50;4.75;;;;;;;;5081532;27;45442;-49
2022/07/08 12:19:29;;;;;;;;;6.20;2.40;;;;;;;;5080915;27;45577;-52
2022/07/08 12:21:55;;;;;;;;;5.00;3.60;;;;;;;;5057101;27;46492;-57
2022/07/08 12:24:24;;;;;;;;;5.75;4.00;;;;;;;;5080692;28;45396;-60
2022/07/08 12:26:56;;;;;;;;;4.20;3.20;;;;;;;;5077650;28;45272;-53
2022/07/08 12:29:22;;;;;;;;;3.60;3.60;;;;;;;;5081010;28;45351;-50
2022/07/08 12:31:47;;;;;;;;;31.75;24.75;;;;;;;;5081516;28;46172;-52
2022/07/08 12:34:16;;;;;;;;;106.00;64.25;;;;;;;;5081678;28;45377;-52
2022/07/08 12:36:41;;;;;;;;;53.80;38.60;;;;;;;;5081625;27;45346;-52
2022/07/08 12:39:16;;;;;;;;;26.50;18.25;;;;;;;;5081586;27;45568;-50
2022/07/08 12:41:42;;;;;;;;;12.40;9.20;;;;;;;;5093450;27;46051;-53
2022/07/08 12:44:26;;;;;;;;;8.75;8.25;;;;;;;;5100522;27;45218;-51
2022/07/08 12:46:51;;;;;;;;;10.80;8.60;;;;;;;;5102259;27;45285;-51
2022/07/08 12:49:23;;;;;;;;;4.00;4.00;;;;;;;;5102156;27;45275;-46
2022/07/08 12:51:49;;;;;;;;;7.80;3.20;;;;;;;;5101814;27;46459;-57
2022/07/08 12:54:15;;;;;;;;;5.75;5.75;;;;;;;;5100804;27;45435;-54
2022/07/08 12:56:40;;;;;;;;;2.80;2.80;;;;;;;;5102239;27;45367;-59
2022/07/08 12:59:05;;;;;;;;;4.50;3.00;;;;;;;;5100829;27;45249;-63
2022/07/08 13:01:31;;;;;;;;;7.25;3.00;;;;;;;;5101627;27;45424;-54
2022/07/08 13:03:56;;;;;;;;;3.75;2.75;;;;;;;;5100825;27;45426;-49
2022/07/08 13:06:22;;;;;;;;;7.00;3.25;;;;;;;;5102066;27;45559;-52
2022/07/08 13:08:47;;;;;;;;;2.75;2.75;;;;;;;;5101836;27;45642;-47
2022/07/08 13:11:12;;;;;;;;;3.50;2.75;;;;;;;;5101670;27;45482;-56
2022/07/08 13:13:38;;;;;;;;;3.25;3.25;;;;;;;;5101805;27;45380;-60
2022/07/08 13:16:03;;;;;;;;;2.50;2.50;;;;;;;;5101593;27;45413;-63
2022/07/08 13:18:28;;;;;;;;;4.00;3.00;;;;;;;;5100383;27;45512;-54
2022/07/08 13:20:54;;;;;;;;;6.00;5.00;;;;;;;;5101051;27;46482;-58
2022/07/08 13:23:19;;;;;;;;;3.00;3.00;;;;;;;;5101288;27;45430;-52
2022/07/08 13:25:46;;;;;;;;;3.00;3.00;;;;;;;;5101470;27;45442;-56
2022/07/08 13:28:11;;;;;;;;;2.60;2.60;;;;;;;;5100121;27;45490;-61
2022/07/08 13:30:36;;;;;;;;;4.00;3.25;;;;;;;;5101096;27;45326;-57
2022/07/08 13:33:01;;;;;;;;;4.75;4.00;;;;;;;;5101108;27;45309;-60
2022/07/08 13:35:27;;;;;;;;;3.00;3.00;;;;;;;;5101237;27;45407;-52
2022/07/08 13:37:53;;;;;;;;;6.75;5.50;;;;;;;;5101066;27;45309;-60
2022/07/08 13:40:19;;;;;;;;;4.25;3.00;;;;;;;;5100679;27;46555;-51
2022/07/08 13:42:44;;;;;;;;;5.60;4.40;;;;;;;;5100844;27;45364;-62
2022/07/08 13:45:09;;;;;;;;;2.25;2.25;;;;;;;;5101170;27;45198;-56
2022/07/08 13:47:35;;;;;;;;;2.00;2.00;;;;;;;;5101402;27;45306;-50
2022/07/08 13:50:00;;;;;;;;;6.00;4.00;;;;;;;;5100597;27;46544;-59
2022/07/08 13:52:26;;;;;;;;;9.25;8.00;;;;;;;;5100744;27;45208;-57
2022/07/08 13:54:51;;;;;;;;;5.20;4.80;;;;;;;;5100863;27;45209;-55
2022/07/08 13:57:16;;;;;;;;;2.25;2.25;;;;;;;;5101129;27;45230;-57
2022/07/08 13:59:42;;;;;;;;;4.25;2.00;;;;;;;;5100467;27;46314;-59
2022/07/08 14:02:07;;;;;;;;;4.75;4.00;;;;;;;;5100637;27;45237;-51
2022/07/08 14:04:33;;;;;;;;;4.00;4.00;;;;;;;;5100944;27;45292;-51
2022/07/08 14:06:58;;;;;;;;;3.00;3.00;;;;;;;;5100966;27;45216;-51
2022/07/08 14:09:23;;;;;;;;;4.00;4.00;;;;;;;;5100579;27;45993;-51
2022/07/08 14:11:48;;;;;;;;;1.75;1.75;;;;;;;;5100506;27;45347;-48
2022/07/08 14:14:14;;;;;;;;;2.50;2.50;;;;;;;;5100385;27;45305;-48
2022/07/08 14:16:39;;;;;;;;;3.75;2.50;;;;;;;;5100912;27;45401;-46
2022/07/08 14:19:04;;;;;;;;;3.25;2.50;;;;;;;;5100291;27;46119;-55
2022/07/08 14:21:29;;;;;;;;;0.00;0.00;;;;;;;;5100714;27;45316;-61
2022/07/08 14:23:55;;;;;;;;;2.75;2.75;;;;;;;;5100878;27;45296;-63
2022/07/08 14:26:20;;;;;;;;;3.50;3.00;;;;;;;;5101038;27;45383;-61
2022/07/08 14:28:45;;;;;;;;;1.25;1.25;;;;;;;;5099123;27;46736;-60
2022/07/08 14:31:10;;;;;;;;;1.75;1.75;;;;;;;;5100470;27;45368;-48
2022/07/08 14:33:36;;;;;;;;;2.25;2.25;;;;;;;;5100555;27;45349;-46
2022/07/08 14:36:02;;;;;;;;;4.50;2.00;;;;;;;;5100774;27;45514;-53
2022/07/08 14:38:27;;;;;;;;;4.20;4.20;;;;;;;;5082021;27;45513;-53